Time;durP1;ratioP1;P1;durP2;ratioP2;P2;SDS_P1;SDS_P2;PMS_P1;PMS_P2;Temp;Humidity;BMP_temperature;BMP_pressure;BME280_temperature;BME280_humidity;BME280_pressure;Samples;Min_cycle;Max_cycle;Signal;HPM_P1;HPM_P2
2023/05/23 00:00:24;;;;;;;10.80;3.77;;;14.00;53.10;;;;;;5093076;28;20183;-77
2023/05/23 00:02:52;;;;;;;10.90;3.37;;;14.20;52.90;;;;;;5092309;28;20171;-79
2023/05/23 00:05:19;;;;;;;8.83;3.37;;;14.30;52.20;;;;;;5085065;28;20218;-83
2023/05/23 00:07:46;;;;;;;11.53;4.20;;;14.50;52.80;;;;;;5091883;28;20523;-81
2023/05/23 00:10:14;;;;;;;12.97;4.23;;;14.60;52.40;;;;;;5090333;28;20179;-81
2023/05/23 00:12:41;;;;;;;14.13;3.77;;;14.70;52.00;;;;;;5087174;28;20206;-78
2023/05/23 00:15:09;;;;;;;15.87;4.40;;;14.80;51.70;;;;;;5091957;28;20186;-75
2023/05/23 00:17:37;;;;;;;12.03;4.30;;;14.80;51.50;;;;;;5091197;28;20203;-82
2023/05/23 00:20:10;;;;;;;9.43;4.37;;;14.90;51.90;;;;;;5093374;28;20201;-83
2023/05/23 00:22:41;;;;;;;12.30;3.97;;;15.00;51.10;;;;;;5091327;28;20198;-83
2023/05/23 00:25:09;;;;;;;11.33;3.90;;;15.20;51.80;;;;;;5092030;28;20167;-84
2023/05/23 00:27:37;;;;;;;17.37;4.57;;;15.20;50.90;;;;;;5090454;28;20187;-81
2023/05/23 00:30:05;;;;;;;10.67;4.00;;;15.20;50.40;;;;;;5088894;28;20202;-80
2023/05/23 00:32:34;;;;;;;15.43;5.07;;;15.20;50.80;;;;;;5087141;28;20210;-80
2023/05/23 00:35:01;;;;;;;15.50;4.07;;;15.30;50.70;;;;;;5092510;28;20236;-77
2023/05/23 00:37:28;;;;;;;7.20;3.17;;;15.30;49.80;;;;;;5089389;28;20228;-79
2023/05/23 00:39:56;;;;;;;8.70;3.50;;;15.40;49.30;;;;;;5096629;28;20592;-74
2023/05/23 00:42:23;;;;;;;11.13;3.70;;;15.50;49.30;;;;;;5094311;28;20188;-83
2023/05/23 00:44:50;;;;;;;15.30;4.20;;;15.60;49.40;;;;;;5097148;28;20190;-72
2023/05/23 00:47:18;;;;;;;13.60;3.97;;;15.80;49.50;;;;;;5095582;28;20244;-82
2023/05/23 00:49:46;;;;;;;10.40;3.63;;;16.00;47.90;;;;;;5094762;28;20190;-73
2023/05/23 00:52:15;;;;;;;10.60;3.80;;;16.10;47.60;;;;;;5093703;28;20249;-80
2023/05/23 00:54:42;;;;;;;14.23;3.80;;;16.20;46.30;;;;;;5096545;28;20213;-72
2023/05/23 00:57:10;;;;;;;13.57;3.87;;;16.30;46.50;;;;;;5091230;28;20234;-77
2023/05/23 00:59:38;;;;;;;12.67;4.03;;;16.50;46.20;;;;;;5093582;28;20571;-80
2023/05/23 01:02:05;;;;;;;13.27;3.50;;;16.60;45.70;;;;;;5095033;28;20204;-80
2023/05/23 01:04:34;;;;;;;10.40;3.83;;;16.60;45.40;;;;;;5095729;28;20307;-81
2023/05/23 01:07:02;;;;;;;9.40;3.30;;;16.80;46.10;;;;;;5100819;28;20193;-81
2023/05/23 01:09:30;;;;;;;9.23;3.57;;;17.00;45.20;;;;;;5097436;28;20378;-78
2023/05/23 01:12:20;;;;;;;10.40;3.30;;;17.10;43.90;;;;;;5092737;28;20261;-76
2023/05/23 01:15:11;;;;;;;11.63;3.27;;;17.30;43.60;;;;;;5093987;28;20177;-80
2023/05/23 01:17:46;;;;;;;8.77;3.33;;;17.40;44.40;;;;;;5089091;28;20198;-78
2023/05/23 01:20:23;;;;;;;9.07;3.33;;;17.40;41.80;;;;;;5094520;28;20207;-72
2023/05/23 01:23:18;;;;;;;10.90;3.00;;;17.60;41.80;;;;;;5092512;28;20674;-82
2023/05/23 01:26:18;;;;;;;6.07;2.67;;;17.90;41.60;;;;;;5089612;28;20495;-73
2023/05/23 01:28:53;;;;;;;6.00;2.30;;;18.00;40.80;;;;;;5092447;28;20602;-81
2023/05/23 01:31:23;;;;;;;7.80;2.87;;;18.10;40.40;;;;;;5087185;28;20198;-81
2023/05/23 01:33:52;;;;;;;13.33;3.40;;;18.30;38.90;;;;;;5092179;28;20186;-82
2023/05/23 01:36:21;;;;;;;5.63;2.50;;;18.40;38.80;;;;;;5087370;28;20214;-83
2023/05/23 01:38:49;;;;;;;9.83;2.77;;;18.50;38.90;;;;;;5093211;28;20547;-81
2023/05/23 01:41:16;;;;;;;7.03;2.63;;;18.70;38.50;;;;;;5093737;28;20182;-73
2023/05/23 01:43:43;;;;;;;9.60;2.63;;;18.80;37.60;;;;;;5091690;28;20182;-82
2023/05/23 01:46:11;;;;;;;9.20;2.70;;;18.80;37.70;;;;;;5089417;28;20263;-81
2023/05/23 01:48:39;;;;;;;6.60;2.57;;;18.80;37.60;;;;;;5092352;28;20189;-81
2023/05/23 01:51:07;;;;;;;8.27;2.63;;;18.80;37.40;;;;;;5092416;28;20178;-76
2023/05/23 01:53:36;;;;;;;10.07;3.20;;;19.10;37.20;;;;;;5089140;28;20194;-75
2023/05/23 01:56:03;;;;;;;7.60;2.70;;;19.30;37.40;;;;;;5086860;28;20634;-77
2023/05/23 01:58:31;;;;;;;11.43;2.87;;;19.60;36.30;;;;;;5091653;28;20206;-80
2023/05/23 02:00:59;;;;;;;11.33;3.17;;;19.80;37.10;;;;;;5092377;28;20738;-79
2023/05/23 02:03:26;;;;;;;6.37;2.53;;;19.60;36.30;;;;;;5091711;28;20247;-79
2023/05/23 02:05:53;;;;;;;9.23;3.07;;;19.50;37.10;;;;;;5090906;28;20187;-80
2023/05/23 02:08:21;;;;;;;6.43;2.60;;;19.80;36.50;;;;;;5092371;28;20210;-81
2023/05/23 02:10:48;;;;;;;8.73;2.50;;;19.80;36.70;;;;;;5089998;28;20240;-81
2023/05/23 02:13:15;;;;;;;8.73;2.83;;;20.10;35.90;;;;;;5092694;28;20617;-81
2023/05/23 02:15:42;;;;;;;11.13;2.80;;;20.00;35.50;;;;;;5093203;28;20191;-76
2023/05/23 02:18:10;;;;;;;7.93;3.00;;;19.90;37.00;;;;;;5092596;28;20186;-76
2023/05/23 02:20:37;;;;;;;7.27;2.67;;;19.80;35.80;;;;;;5093505;28;20179;-81
2023/05/23 02:23:04;;;;;;;10.97;3.13;;;20.00;35.40;;;;;;5094346;28;20186;-80
2023/05/23 02:25:32;;;;;;;11.07;3.23;;;20.30;35.10;;;;;;5094376;28;20190;-82
2023/05/23 02:27:59;;;;;;;7.13;2.27;;;20.20;35.70;;;;;;5093612;28;20256;-77
2023/05/23 02:30:26;;;;;;;8.27;2.90;;;20.20;36.10;;;;;;5093086;28;20671;-77
2023/05/23 02:32:54;;;;;;;6.93;2.67;;;20.30;35.50;;;;;;5093683;28;20210;-78
2023/05/23 02:35:22;;;;;;;8.87;2.47;;;20.10;35.90;;;;;;5090699;28;20193;-78
2023/05/23 02:37:49;;;;;;;7.17;2.80;;;20.30;36.10;;;;;;5086709;28;20271;-80
2023/05/23 02:40:17;;;;;;;9.03;2.57;;;20.80;35.60;;;;;;5093276;28;20741;-80
2023/05/23 02:42:44;;;;;;;5.70;2.70;;;20.80;35.10;;;;;;5092020;28;20197;-79
2023/05/23 02:45:11;;;;;;;8.43;2.90;;;21.00;34.40;;;;;;5093012;28;20648;-79
2023/05/23 02:47:39;;;;;;;11.60;2.83;;;21.00;34.60;;;;;;5082907;28;20195;-83
2023/05/23 02:50:07;;;;;;;10.20;2.80;;;21.00;34.30;;;;;;5087165;28;20240;-77
2023/05/23 02:52:34;;;;;;;6.07;2.30;;;21.10;34.50;;;;;;5085822;28;20698;-80
2023/05/23 02:55:01;;;;;;;9.50;2.93;;;21.50;33.80;;;;;;5091889;28;20179;-75
2023/05/23 02:57:29;;;;;;;6.37;2.23;;;21.50;33.10;;;;;;5090948;28;20210;-77
2023/05/23 02:59:56;;;;;;;8.13;2.67;;;21.40;33.00;;;;;;5089277;28;20704;-78
2023/05/23 03:02:23;;;;;;;11.47;2.57;;;21.50;33.30;;;;;;5092019;28;20182;-79
2023/05/23 03:04:50;;;;;;;11.60;2.90;;;21.30;33.70;;;;;;5091321;28;20259;-78
2023/05/23 03:07:18;;;;;;;11.57;2.50;;;21.10;34.40;;;;;;5087731;28;20190;-74
2023/05/23 03:09:45;;;;;;;7.83;2.60;;;21.30;34.30;;;;;;5091823;28;20206;-76
2023/05/23 03:12:12;;;;;;;7.83;2.87;;;21.30;34.30;;;;;;5092918;28;20214;-80
2023/05/23 03:14:40;;;;;;;9.20;3.13;;;21.50;34.30;;;;;;5087537;28;20183;-80
2023/05/23 03:17:07;;;;;;;8.73;2.53;;;21.40;34.00;;;;;;5089465;28;20228;-80
2023/05/23 03:19:34;;;;;;;5.23;2.20;;;21.70;33.90;;;;;;5092682;28;20182;-78
2023/05/23 03:22:02;;;;;;;9.57;2.73;;;21.80;34.00;;;;;;5091328;28;20186;-77
2023/05/23 03:24:30;;;;;;;8.60;2.90;;;22.10;34.10;;;;;;5091650;28;20178;-78
2023/05/23 03:26:58;;;;;;;8.90;2.20;;;22.30;33.50;;;;;;5092902;28;20185;-74
2023/05/23 03:29:25;;;;;;;7.47;2.53;;;22.40;33.70;;;;;;5092587;28;20267;-78
2023/05/23 03:31:52;;;;;;;5.70;2.07;;;22.80;32.70;;;;;;5092583;28;20689;-81
2023/05/23 03:34:19;;;;;;;7.70;2.57;;;22.30;33.80;;;;;;5092126;28;20320;-68
2023/05/23 03:36:47;;;;;;;8.97;2.67;;;22.70;33.40;;;;;;5083702;28;20225;-77
2023/05/23 03:39:14;;;;;;;5.50;2.23;;;22.50;33.80;;;;;;5092168;28;21013;-78
2023/05/23 03:41:42;;;;;;;7.37;2.43;;;23.10;33.30;;;;;;5090712;28;20185;-79
2023/05/23 03:44:09;;;;;;;6.60;2.40;;;22.80;33.20;;;;;;5090862;28;20183;-79
2023/05/23 03:46:37;;;;;;;12.63;2.60;;;23.50;31.90;;;;;;5090518;28;20273;-76
2023/05/23 03:49:04;;;;;;;7.43;2.53;;;23.30;32.10;;;;;;5087626;28;20187;-79
2023/05/23 03:51:31;;;;;;;10.87;3.10;;;23.30;33.10;;;;;;5091396;28;20297;-81
2023/05/23 03:53:58;;;;;;;11.57;4.73;;;23.50;33.00;;;;;;5092111;28;20182;-78
2023/05/23 03:56:26;;;;;;;7.90;3.07;;;23.30;32.90;;;;;;5091478;28;20183;-74
2023/05/23 03:58:53;;;;;;;11.80;3.20;;;23.20;33.90;;;;;;5091885;28;20714;-77
2023/05/23 04:01:20;;;;;;;10.03;3.00;;;23.50;33.00;;;;;;5090639;28;20668;-78
2023/05/23 04:03:50;;;;;;;8.63;2.43;;;23.40;32.70;;;;;;5089223;28;20200;-70
2023/05/23 04:06:19;;;;;;;12.50;3.30;;;23.50;32.90;;;;;;5089938;28;20187;-77
2023/05/23 04:08:47;;;;;;;7.83;2.83;;;23.40;33.20;;;;;;5091766;28;20174;-79
2023/05/23 04:11:14;;;;;;;8.27;2.70;;;23.20;33.90;;;;;;5078673;28;20187;-78
2023/05/23 04:13:42;;;;;;;10.83;2.40;;;22.90;33.90;;;;;;5091216;28;20522;-79
2023/05/23 04:16:10;;;;;;;11.60;4.93;;;23.70;33.50;;;;;;5090463;28;20174;-75
2023/05/23 04:18:37;;;;;;;9.53;4.27;;;23.50;32.60;;;;;;5089113;28;20678;-79
2023/05/23 04:21:05;;;;;;;8.80;4.10;;;23.80;31.50;;;;;;5082438;28;20175;-76
2023/05/23 04:23:33;;;;;;;9.50;2.80;;;23.10;32.80;;;;;;5091070;28;20175;-78
2023/05/23 04:26:00;;;;;;;8.53;2.80;;;23.00;33.00;;;;;;5084095;28;20182;-79
2023/05/23 04:28:27;;;;;;;7.03;2.97;;;22.60;34.10;;;;;;5090911;28;20342;-77
2023/05/23 04:30:55;;;;;;;9.97;2.77;;;22.70;34.20;;;;;;5089919;28;20182;-77
2023/05/23 04:33:22;;;;;;;8.57;3.20;;;23.00;33.90;;;;;;5091152;28;20763;-79
2023/05/23 04:35:50;;;;;;;14.67;3.33;;;23.60;33.20;;;;;;5086480;28;20656;-78
2023/05/23 04:38:17;;;;;;;10.93;3.30;;;23.60;34.00;;;;;;5089055;28;20194;-76
2023/05/23 04:40:44;;;;;;;12.73;3.67;;;23.30;34.90;;;;;;5083940;28;20183;-77
2023/05/23 04:43:13;;;;;;;15.70;3.47;;;23.70;35.00;;;;;;5088047;28;20236;-77
2023/05/23 04:45:40;;;;;;;15.57;4.00;;;24.00;36.70;;;;;;5082564;28;20174;-78
2023/05/23 04:48:08;;;;;;;12.37;3.37;;;23.30;37.40;;;;;;5087629;28;20183;-78
2023/05/23 04:50:36;;;;;;;12.03;3.40;;;23.20;38.80;;;;;;5090601;28;20221;-79
2023/05/23 04:53:04;;;;;;;11.87;3.60;;;22.90;39.40;;;;;;5087262;28;20210;-80
2023/05/23 04:55:31;;;;;;;14.00;3.23;;;22.70;39.80;;;;;;5088825;28;20194;-77
2023/05/23 04:57:58;;;;;;;16.13;2.83;;;22.40;40.70;;;;;;5090943;28;20182;-79
2023/05/23 05:00:26;;;;;;;10.60;3.57;;;22.50;41.10;;;;;;5089401;28;20187;-74
2023/05/23 05:02:54;;;;;;;11.20;3.20;;;22.30;41.30;;;;;;5091133;28;20175;-80
2023/05/23 05:05:21;;;;;;;14.33;3.30;;;22.80;41.00;;;;;;5086629;28;20183;-77
2023/05/23 05:07:49;;;;;;;9.63;3.07;;;23.80;39.40;;;;;;5090921;28;20198;-77
2023/05/23 05:10:16;;;;;;;7.60;2.80;;;23.70;39.10;;;;;;5086991;28;20187;-76
2023/05/23 05:12:45;;;;;;;10.10;2.70;;;23.50;39.10;;;;;;5089472;28;20202;-75
2023/05/23 05:15:13;;;;;;;10.13;2.77;;;23.80;39.30;;;;;;5091025;28;20815;-76
2023/05/23 05:17:41;;;;;;;12.83;3.30;;;22.90;41.00;;;;;;5090525;28;20219;-77
2023/05/23 05:20:09;;;;;;;9.70;2.97;;;23.20;41.00;;;;;;5088627;28;20654;-78
2023/05/23 05:22:41;;;;;;;12.20;3.10;;;23.30;41.10;;;;;;5089723;28;20285;-77
2023/05/23 05:25:09;;;;;;;13.47;3.30;;;24.30;39.20;;;;;;5091542;28;20186;-80
2023/05/23 05:27:37;;;;;;;9.13;3.00;;;24.30;38.30;;;;;;5094475;28;20209;-73
2023/05/23 05:30:09;;;;;;;10.40;2.70;;;24.10;39.10;;;;;;5094693;28;20182;-79
2023/05/23 05:32:36;;;;;;;8.80;2.33;;;23.80;40.20;;;;;;5094281;28;20684;-78
2023/05/23 05:35:04;;;;;;;13.63;3.00;;;23.40;41.40;;;;;;5091175;28;20193;-76
2023/05/23 05:37:32;;;;;;;7.27;2.27;;;24.20;40.10;;;;;;5086552;28;20326;-76
2023/05/23 05:40:05;;;;;;;14.40;2.63;;;24.40;40.80;;;;;;5094594;28;20182;-76
2023/05/23 05:42:32;;;;;;;9.10;2.80;;;23.60;41.90;;;;;;5094038;28;20186;-76
2023/05/23 05:45:00;;;;;;;8.93;3.10;;;23.90;42.00;;;;;;5094589;28;20687;-78
2023/05/23 05:47:27;;;;;;;10.10;2.47;;;23.90;41.10;;;;;;5094461;28;20874;-78
2023/05/23 05:49:55;;;;;;;8.97;2.27;;;24.00;40.80;;;;;;5094391;28;20641;-78
2023/05/23 05:52:22;;;;;;;6.73;2.23;;;23.90;41.10;;;;;;5093092;28;20677;-75
2023/05/23 05:54:50;;;;;;;9.20;2.67;;;24.20;41.10;;;;;;5089000;28;20182;-74
2023/05/23 05:57:17;;;;;;;8.17;2.57;;;24.00;41.70;;;;;;5094381;28;20186;-78
2023/05/23 05:59:44;;;;;;;7.27;2.30;;;23.50;42.80;;;;;;5085198;28;20185;-76
2023/05/23 06:02:12;;;;;;;8.77;2.50;;;22.90;44.60;;;;;;5091668;28;20190;-76
2023/05/23 06:04:39;;;;;;;8.03;2.60;;;23.20;44.10;;;;;;5094965;28;20187;-74
2023/05/23 06:07:06;;;;;;;11.10;3.10;;;23.30;43.50;;;;;;5090757;28;20254;-74
2023/05/23 06:09:34;;;;;;;10.57;3.00;;;22.20;46.10;;;;;;5088610;28;20636;-76
2023/05/23 06:12:02;;;;;;;10.23;2.80;;;21.30;48.50;;;;;;5091443;28;20232;-75
2023/05/23 06:14:29;;;;;;;10.07;2.87;;;20.80;50.60;;;;;;5090366;28;20573;-75
2023/05/23 06:16:57;;;;;;;7.47;2.53;;;20.30;51.80;;;;;;5089944;28;20225;-73
2023/05/23 06:19:25;;;;;;;11.00;2.43;;;19.90;52.80;;;;;;5087314;28;20218;-77
2023/05/23 06:21:53;;;;;;;9.30;2.90;;;19.60;53.40;;;;;;5089390;28;20191;-73
2023/05/23 06:24:20;;;;;;;7.50;2.93;;;19.00;55.50;;;;;;5086208;28;20182;-73
2023/05/23 06:26:47;;;;;;;13.60;2.90;;;18.80;56.50;;;;;;5093701;28;20235;-75
2023/05/23 06:29:15;;;;;;;8.53;2.43;;;18.80;56.80;;;;;;5093240;28;20189;-74
2023/05/23 06:31:42;;;;;;;7.53;2.57;;;18.80;57.40;;;;;;5093258;28;20213;-73
2023/05/23 06:34:09;;;;;;;9.20;2.33;;;18.60;57.50;;;;;;5083645;28;20304;-77
2023/05/23 06:36:37;;;;;;;11.87;2.93;;;18.30;58.20;;;;;;5090149;28;20222;-74
2023/05/23 06:39:04;;;;;;;10.20;2.93;;;18.20;59.30;;;;;;5089184;28;20181;-76
2023/05/23 06:41:31;;;;;;;11.07;3.13;;;18.00;59.90;;;;;;5092572;28;20185;-74
2023/05/23 06:44:00;;;;;;;7.23;2.60;;;17.90;60.60;;;;;;5087366;28;20197;-73
2023/05/23 06:46:27;;;;;;;9.50;3.57;;;17.80;60.70;;;;;;5089938;28;20186;-70
2023/05/23 06:48:54;;;;;;;17.17;4.20;;;17.70;61.70;;;;;;5092332;28;20241;-75
2023/05/23 06:51:22;;;;;;;9.43;3.30;;;17.70;61.60;;;;;;5091745;28;20538;-74
2023/05/23 06:53:49;;;;;;;14.23;3.13;;;17.60;62.40;;;;;;5091928;28;20181;-75
2023/05/23 06:56:17;;;;;;;9.27;2.93;;;17.50;62.50;;;;;;5089196;28;20220;-77
2023/05/23 06:58:44;;;;;;;11.13;3.53;;;17.30;63.40;;;;;;5085483;28;20186;-77
2023/05/23 07:01:11;;;;;;;12.87;3.53;;;17.20;63.80;;;;;;5084801;28;20174;-77
2023/05/23 07:03:40;;;;;;;11.73;3.27;;;17.00;64.50;;;;;;5089181;28;20700;-76
2023/05/23 07:06:08;;;;;;;14.33;3.37;;;16.90;65.30;;;;;;5092459;28;20269;-77
2023/05/23 07:08:35;;;;;;;20.63;3.90;;;16.80;65.70;;;;;;5087192;28;20189;-74
2023/05/23 07:11:03;;;;;;;11.50;3.33;;;16.80;65.50;;;;;;5091574;28;20656;-79
2023/05/23 07:13:30;;;;;;;9.40;3.03;;;16.80;65.60;;;;;;5089398;28;20284;-77
2023/05/23 07:15:58;;;;;;;15.30;3.67;;;16.70;66.00;;;;;;5091898;28;20185;-79
2023/05/23 07:18:25;;;;;;;9.60;3.37;;;16.70;66.60;;;;;;5092029;28;20724;-79
2023/05/23 07:20:52;;;;;;;10.60;3.23;;;16.50;66.50;;;;;;5092796;28;20186;-80
2023/05/23 07:23:22;;;;;;;11.93;3.87;;;16.40;66.90;;;;;;5091422;28;20725;-81
2023/05/23 07:25:49;;;;;;;12.03;3.50;;;16.30;67.20;;;;;;5092297;28;20182;-78
2023/05/23 07:28:19;;;;;;;14.87;3.87;;;16.20;67.70;;;;;;5092179;28;20200;-80
2023/05/23 07:30:46;;;;;;;12.47;3.23;;;16.20;68.20;;;;;;5091999;28;20193;-79
2023/05/23 07:33:14;;;;;;;13.77;3.43;;;16.10;68.50;;;;;;5089070;28;20221;-78
2023/05/23 07:35:41;;;;;;;16.47;3.37;;;16.00;68.80;;;;;;5092577;28;20225;-80
2023/05/23 07:38:09;;;;;;;20.40;3.67;;;16.00;69.00;;;;;;5085883;28;20280;-80
2023/05/23 07:40:37;;;;;;;9.57;2.90;;;15.90;69.40;;;;;;5091516;28;20656;-79
2023/05/23 07:43:04;;;;;;;18.37;3.97;;;15.80;69.40;;;;;;5091413;28;20723;-71
2023/05/23 07:45:32;;;;;;;14.50;3.63;;;15.80;70.00;;;;;;5090810;28;20206;-80
2023/05/23 07:47:59;;;;;;;12.13;3.30;;;15.70;69.90;;;;;;5091782;28;20176;-81
2023/05/23 07:50:26;;;;;;;10.50;3.50;;;15.70;70.00;;;;;;5089084;28;20239;-79
2023/05/23 07:52:54;;;;;;;13.70;3.77;;;15.50;70.20;;;;;;5083765;28;20201;-77
2023/05/23 07:55:23;;;;;;;17.63;4.73;;;15.50;70.70;;;;;;5087891;28;20182;-78
2023/05/23 07:57:51;;;;;;;12.97;4.20;;;15.50;70.70;;;;;;5088057;28;20183;-79
2023/05/23 08:00:19;;;;;;;15.53;4.37;;;15.50;71.10;;;;;;5086566;28;20174;-79
2023/05/23 08:02:46;;;;;;;17.27;4.40;;;15.30;71.30;;;;;;5085791;28;20184;-75
2023/05/23 08:05:13;;;;;;;13.07;4.67;;;15.30;71.60;;;;;;5088977;28;20336;-72
2023/05/23 08:07:41;;;;;;;12.30;4.10;;;15.30;71.70;;;;;;5089002;28;20185;-74
2023/05/23 08:10:08;;;;;;;13.23;4.03;;;15.20;71.90;;;;;;5088065;28;20221;-80
2023/05/23 08:12:36;;;;;;;12.27;3.93;;;15.20;72.00;;;;;;5088419;28;20240;-80
2023/05/23 08:15:03;;;;;;;15.80;4.60;;;15.10;72.40;;;;;;5089615;28;20173;-79
2023/05/23 08:17:31;;;;;;;16.20;4.00;;;15.00;72.80;;;;;;5089006;28;20186;-81
2023/05/23 08:20:00;;;;;;;11.73;4.27;;;15.00;72.90;;;;;;5088678;28;20590;-81
2023/05/23 08:22:27;;;;;;;15.80;4.47;;;14.90;73.30;;;;;;5087232;28;20439;-77
2023/05/23 08:24:54;;;;;;;17.27;4.50;;;14.80;73.50;;;;;;5090601;28;20187;-80
2023/05/23 08:27:22;;;;;;;10.87;4.73;;;14.80;73.80;;;;;;5090477;28;20230;-79
2023/05/23 08:29:49;;;;;;;14.97;5.20;;;14.80;74.20;;;;;;5083767;28;20648;-77
2023/05/23 08:32:16;;;;;;;16.70;5.20;;;14.80;74.30;;;;;;5090288;28;20216;-81
2023/05/23 08:34:44;;;;;;;10.50;4.67;;;14.70;74.40;;;;;;5088586;28;20281;-75
2023/05/23 08:37:11;;;;;;;12.77;5.20;;;14.70;74.50;;;;;;5086622;28;20230;-80
2023/05/23 08:39:38;;;;;;;15.00;5.10;;;14.70;74.70;;;;;;5087650;28;20266;-78
2023/05/23 08:42:06;;;;;;;14.50;5.70;;;14.60;74.90;;;;;;5086908;28;20179;-80
2023/05/23 08:44:34;;;;;;;16.63;5.90;;;14.60;75.20;;;;;;5090104;28;20273;-80
2023/05/23 08:47:04;;;;;;;13.47;5.30;;;14.60;75.30;;;;;;5089513;28;20191;-80
2023/05/23 08:49:31;;;;;;;14.23;5.60;;;14.50;75.60;;;;;;5086983;28;20578;-80
2023/05/23 08:52:02;;;;;;;15.60;5.33;;;14.50;75.90;;;;;;5091325;28;20579;-78
2023/05/23 08:54:31;;;;;;;13.80;5.57;;;14.50;75.70;;;;;;5087575;28;20206;-79
2023/05/23 08:56:59;;;;;;;15.27;5.17;;;14.40;75.90;;;;;;5091355;28;20181;-79
2023/05/23 08:59:27;;;;;;;18.80;6.67;;;14.30;76.00;;;;;;5079776;28;20180;-81
2023/05/23 09:01:56;;;;;;;14.30;5.50;;;14.30;76.40;;;;;;5091777;28;20181;-79
2023/05/23 09:04:23;;;;;;;18.83;6.33;;;14.30;76.50;;;;;;5093789;28;20206;-79
2023/05/23 09:06:51;;;;;;;17.60;5.37;;;14.30;76.70;;;;;;5090001;28;20202;-77
2023/05/23 09:09:18;;;;;;;15.77;5.37;;;14.20;76.70;;;;;;5094334;28;20178;-78
2023/05/23 09:11:46;;;;;;;17.27;6.17;;;14.20;77.00;;;;;;5088120;28;20304;-80
2023/05/23 09:14:14;;;;;;;16.17;5.97;;;14.10;77.00;;;;;;5094295;28;20183;-79
2023/05/23 09:16:45;;;;;;;15.33;7.63;;;14.10;77.20;;;;;;5091978;28;20714;-77
2023/05/23 09:19:14;;;;;;;20.80;7.37;;;14.00;77.20;;;;;;5089201;28;20268;-77
2023/05/23 09:21:44;;;;;;;17.93;8.10;;;14.00;77.50;;;;;;5094284;28;20182;-79
2023/05/23 09:24:12;;;;;;;17.67;7.70;;;14.00;77.80;;;;;;5092580;28;20179;-74
2023/05/23 09:26:39;;;;;;;27.63;7.77;;;13.90;77.70;;;;;;5085504;28;20198;-74
2023/05/23 09:29:07;;;;;;;15.90;7.43;;;13.90;77.90;;;;;;5089280;28;20689;-75
2023/05/23 09:31:34;;;;;;;27.97;8.77;;;13.80;78.10;;;;;;5087063;28;20196;-80
2023/05/23 09:34:02;;;;;;;23.13;8.17;;;13.80;78.50;;;;;;5091462;28;20752;-80
2023/05/23 09:36:32;;;;;;;21.10;7.43;;;13.80;78.70;;;;;;5091604;28;20899;-79
2023/05/23 09:39:06;;;;;;;18.83;7.77;;;13.80;79.10;;;;;;5094095;28;20221;-78
2023/05/23 09:41:34;;;;;;;18.47;7.73;;;13.70;79.30;;;;;;5094666;28;20195;-80
2023/05/23 09:44:07;;;;;;;18.07;7.03;;;13.80;79.60;;;;;;5089221;28;20186;-80
2023/05/23 09:46:37;;;;;;;19.77;8.20;;;13.80;79.50;;;;;;5089298;28;20205;-82
2023/05/23 09:49:21;;;;;;;22.90;9.27;;;13.80;79.80;;;;;;5090867;28;20187;-77
2023/05/23 09:52:01;;;;;;;23.73;10.70;;;13.70;79.50;;;;;;5088699;28;20206;-82
2023/05/23 09:54:28;;;;;;;23.27;10.17;;;13.50;79.80;;;;;;5093861;28;20274;-79
2023/05/23 09:56:59;;;;;;;24.70;10.50;;;13.40;80.00;;;;;;5087378;28;20186;-81
2023/05/23 09:59:30;;;;;;;22.20;9.93;;;13.40;80.50;;;;;;5093826;28;20191;-82
2023/05/23 10:02:02;;;;;;;20.90;10.63;;;13.40;80.90;;;;;;5090335;28;20192;-82
2023/05/23 10:04:33;;;;;;;22.47;11.30;;;13.30;80.60;;;;;;5094086;28;20277;-82
2023/05/23 10:07:10;;;;;;;23.83;11.43;;;13.20;80.80;;;;;;5095801;28;20620;-83
2023/05/23 10:09:39;;;;;;;25.50;13.53;;;13.10;81.00;;;;;;5090039;28;20202;-83
2023/05/23 10:12:21;;;;;;;19.70;9.73;;;13.00;81.50;;;;;;5091344;28;20209;-77
2023/05/23 10:14:54;;;;;;;31.03;9.90;;;13.00;81.70;;;;;;5091860;28;20532;-79
2023/05/23 10:17:52;;;;;;;23.43;9.67;;;13.00;82.30;;;;;;5089363;28;20664;-83
2023/05/23 10:20:24;;;;;;;24.70;8.00;;;13.00;82.30;;;;;;5087194;28;20245;-82
2023/05/23 10:22:53;;;;;;;24.60;7.60;;;12.90;82.40;;;;;;5089811;28;20515;-84
2023/05/23 10:25:21;;;;;;;23.63;8.23;;;13.00;83.00;;;;;;5088485;28;20208;-74
2023/05/23 10:27:49;;;;;;;19.80;8.47;;;13.00;83.30;;;;;;5092396;28;20186;-82
2023/05/23 10:30:17;;;;;;;25.90;8.63;;;13.00;83.80;;;;;;5093546;28;20564;-79
2023/05/23 10:32:45;;;;;;;20.07;7.97;;;13.10;84.10;;;;;;5094613;28;20248;-83
2023/05/23 10:35:30;;;;;;;26.80;8.27;;;13.00;83.90;;;;;;5091490;28;20229;-81
2023/05/23 10:38:12;;;;;;;17.50;7.97;;;13.00;84.00;;;;;;5087679;28;20241;-82
2023/05/23 10:40:55;;;;;;;18.43;8.20;;;13.00;84.30;;;;;;5090249;28;20208;-83
2023/05/23 10:43:40;;;;;;;19.37;8.10;;;13.00;84.20;;;;;;5093661;28;20212;-84
2023/05/23 10:46:13;;;;;;;15.03;8.00;;;12.80;84.20;;;;;;5092599;28;20236;-79
2023/05/23 10:48:45;;;;;;;15.93;8.00;;;12.80;84.60;;;;;;5094272;28;20220;-81
2023/05/23 10:51:14;;;;;;;20.43;8.60;;;12.80;84.70;;;;;;5091767;28;20182;-80
2023/05/23 10:53:44;;;;;;;19.80;7.93;;;12.80;84.80;;;;;;5089565;28;20215;-84
2023/05/23 10:56:23;;;;;;;22.80;9.30;;;12.80;84.70;;;;;;5093208;28;20187;-78
2023/05/23 10:58:57;;;;;;;17.03;8.80;;;12.70;84.80;;;;;;5094576;28;20175;-78
2023/05/23 11:01:26;;;;;;;19.40;8.57;;;12.60;84.70;;;;;;5093164;28;20189;-80
2023/05/23 11:03:53;;;;;;;22.27;9.37;;;12.60;84.90;;;;;;5096994;28;20193;-78
2023/05/23 11:06:42;;;;;;;17.10;9.03;;;12.50;84.90;;;;;;5093756;28;20182;-74
2023/05/23 11:09:18;;;;;;;24.70;10.00;;;12.50;85.10;;;;;;5094427;28;20696;-81
2023/05/23 11:11:57;;;;;;;22.17;9.40;;;12.50;85.30;;;;;;5097448;28;20225;-83
2023/05/23 11:14:53;;;;;;;20.50;9.73;;;12.50;85.70;;;;;;5089893;28;20182;-82
2023/05/23 11:17:32;;;;;;;19.07;9.53;;;12.60;85.80;;;;;;5093645;28;20178;-81
2023/05/23 11:20:08;;;;;;;22.53;8.83;;;12.60;85.80;;;;;;5094279;28;20209;-81
2023/05/23 11:22:36;;;;;;;20.27;9.77;;;12.50;85.60;;;;;;5085834;28;20170;-81
2023/05/23 11:25:11;;;;;;;24.07;9.57;;;12.60;86.00;;;;;;5092592;28;20174;-81
2023/05/23 11:27:41;;;;;;;20.17;9.63;;;12.50;85.70;;;;;;5090146;28;20185;-74
2023/05/23 11:30:16;;;;;;;23.13;10.13;;;12.50;85.80;;;;;;5091231;28;20182;-81
2023/05/23 11:32:52;;;;;;;21.70;9.93;;;12.40;85.90;;;;;;5089049;28;20297;-71
2023/05/23 11:35:20;;;;;;;23.53;10.57;;;12.40;86.00;;;;;;5090726;28;20723;-79
2023/05/23 11:37:47;;;;;;;23.77;10.07;;;12.40;86.20;;;;;;5092964;28;20225;-82
2023/05/23 11:40:39;;;;;;;23.80;10.30;;;12.30;86.20;;;;;;5089845;28;20624;-82
2023/05/23 11:43:09;;;;;;;20.80;10.90;;;12.30;86.40;;;;;;5089428;28;20180;-82
2023/05/23 11:45:38;;;;;;;22.00;9.97;;;12.30;86.20;;;;;;5087418;28;20193;-83
2023/05/23 11:48:07;;;;;;;17.47;10.23;;;12.20;86.30;;;;;;5091995;28;20636;-78
2023/05/23 11:50:42;;;;;;;31.23;10.97;;;12.20;86.40;;;;;;5089912;28;20183;-80
2023/05/23 11:53:10;;;;;;;18.17;9.90;;;12.30;86.50;;;;;;5092669;28;20220;-78
2023/05/23 11:55:40;;;;;;;22.27;10.13;;;12.30;86.60;;;;;;5091930;28;20270;-75
2023/05/23 11:58:08;;;;;;;22.33;9.73;;;12.30;86.60;;;;;;5088257;28;20190;-80
2023/05/23 12:00:42;;;;;;;19.87;9.60;;;12.20;86.60;;;;;;5088966;28;20179;-82
2023/05/23 12:03:10;;;;;;;19.80;10.17;;;12.20;86.70;;;;;;5088428;28;20213;-71
2023/05/23 12:05:37;;;;;;;22.27;9.97;;;12.10;86.70;;;;;;5089980;28;20178;-82
2023/05/23 12:08:05;;;;;;;21.20;9.97;;;12.20;86.90;;;;;;5093229;28;20656;-78
2023/05/23 12:10:33;;;;;;;22.97;9.87;;;12.20;87.00;;;;;;5087086;28;20212;-75
2023/05/23 12:13:01;;;;;;;21.70;10.87;;;12.20;86.70;;;;;;5087907;28;20214;-78
2023/05/23 12:15:29;;;;;;;21.10;10.60;;;12.00;86.50;;;;;;5085651;28;20183;-79
2023/05/23 12:17:57;;;;;;;23.50;10.83;;;11.90;86.50;;;;;;5087145;28;20186;-82
2023/05/23 12:20:25;;;;;;;19.70;10.03;;;11.90;86.90;;;;;;5090364;28;20179;-77
2023/05/23 12:22:56;;;;;;;21.23;10.60;;;11.80;86.70;;;;;;5087872;28;20256;-80
2023/05/23 12:25:24;;;;;;;23.33;9.83;;;11.80;87.00;;;;;;5088181;28;20174;-79
2023/05/23 12:27:55;;;;;;;20.07;10.83;;;11.80;87.20;;;;;;5090348;28;20186;-82
2023/05/23 12:30:22;;;;;;;19.57;10.47;;;11.70;87.00;;;;;;5086556;28;20178;-80
2023/05/23 12:32:49;;;;;;;18.93;11.07;;;11.70;87.20;;;;;;5086719;28;20568;-83
2023/05/23 12:35:17;;;;;;;19.67;11.07;;;11.70;87.20;;;;;;5092508;28;20556;-81
2023/05/23 12:37:45;;;;;;;20.87;10.50;;;11.70;87.60;;;;;;5093507;28;20234;-84
2023/05/23 12:40:17;;;;;;;19.97;10.00;;;11.70;87.70;;;;;;5093936;28;20274;-85
2023/05/23 12:42:54;;;;;;;25.00;12.10;;;11.70;87.70;;;;;;5091444;28;20668;-83
2023/05/23 12:45:35;;;;;;;24.30;10.97;;;11.80;87.70;;;;;;5092049;28;20182;-81
2023/05/23 12:48:03;;;;;;;23.47;11.23;;;11.80;87.70;;;;;;5090496;28;20186;-81